Catania, Italy

12:23 PM CEST on September 23, 2014 (GMT +0200)
Zona Industriale - Catania | Change Station
CLOSE
Current Station
Personal Weather Station
Location: (*Meteosicilia*), Sicily
Elevation: 60 ft
Nearby Weather Stations

Elev 60 ft 37.45 °N, 15.04 °E | Updated 2 seconds ago

Clear
Clear
85.4 °F
Feels Like 91 °F
N
7.0
Wind Variable Wind from ENE
Gusts 10.0 mph

Today
High -- | Low -- °F
--% Chance of Precip.
Yesterday
High -- | Low -- °F
Precip. -- in
6:48 AM 6:55 PM
Waning Crescent, 1% visible
Pressure 29.86 in
Visibility -9999.0 miles
Clouds
Heat Index 91 °F
Dew Point 71 °F
Humidity 62%
Rainfall 0.00 in
Snow Depth Not available.
UV Not available.
Pollen Not available.
Air Quality Not available.
Flu Activity Not available.
METAR LICZ 230955Z 11008KT CAVOK 32/22 Q1011 RMK SCT SCT180 VIS MIN 9999 WIND THR28 09011KT A2986 BLU

More Conditions Fewer Conditions

Pressure 29.86 in
Visibility -9999.0 miles
Clouds
Heat Index 91 °F
Dew Point 71 °F
Humidity 62%
Rainfall 0.00 in
Snow Depth Not available.
UV Not available.
Pollen Not available.
Air Quality Not available.
Flu Activity Not available.
METAR LICZ 230955Z 11008KT CAVOK 32/22 Q1011 RMK SCT SCT180 VIS MIN 9999 WIND THR28 09011KT A2986 BLU

More Conditions Fewer Conditions

10-Day Weather Forecast

Almanac

Astronomy

Sep. 23, 2014 Rise Set
Actual Time 6:48 AM CEST 6:55 PM CEST
Civil Twilight 6:22 AM CEST 7:21 PM CEST
Nautical Twilight 5:51 AM CEST 7:52 PM CEST
Astronomical Twilight 5:20 AM CEST 8:22 PM CEST
Moon 5:56 AM CEST 6:25 PM CEST
Length of Visible Light 12h 59m
Length of Day
12h 07m
Tomorrow will be 2m 23s shorter.
Waning Crescent, 1% of the Moon is Illuminated
Today
Waning Crescent
Sep 24
New
Oct 1
First Quarter
Oct 8
Full
Oct 15
Last Quarter

Yesterday's Extremes

Country Highs Country Lows

Community

WunderPhotos

Upload Photos

1,755,645 photos uploaded!

Nearby

Snow Depth

Not available.

Earthquake Activity

City Distance Mag. Time & Date
No recent earthquake activity has been reported nearby.
Minimum magnitude displayed is 2.5.

Coastal Water Temperatures

Place Temperature
No Stations Reporting

Nearby Weather Stations